Terminal Aerodrome Forecast
Issued by NWS

Home | Current Version | Previous Version | Text Only | Print | Product List | Glossary On
Versions: 1 2 3 4 5 6 7 8 9 10 11 12 13
000
FTUS45 KRIW 192320
TAFBPI
TAF
KBPI 192320Z 2000/2024 30014G22KT P6SM VCSH SCT035 BKN060
     FM200100 30012KT P6SM SCT040 BKN070
     FM200600 34007KT P6SM SCT070 BKN200
     FM201700 23011G17KT P6SM SCT050 BKN070
     FM202000 26018G26KT P6SM VCSH SCT040 BKN060=

USA.gov is the U.S. government's official web portal to all federal, state and local government web resources and services.